Time;durP1;ratioP1;P1;durP2;ratioP2;P2;SDS_P1;SDS_P2;PMS_P1;PMS_P2;Temp;Humidity;BMP_temperature;BMP_pressure;BME280_temperature;BME280_humidity;BME280_pressure;Samples;Min_cycle;Max_cycle;Signal;HPM_P1;HPM_P2
2024/03/14 00:00:45;;;;;;;11.20;5.85;;;;;;;10.27;100.00;98930.63;5114897;28;20090;-77
2024/03/14 00:03:10;;;;;;;16.10;6.40;;;;;;;10.17;100.00;98914.78;5111288;27;20042;-76
2024/03/14 00:05:37;;;;;;;13.77;6.43;;;;;;;10.01;100.00;98890.78;5107235;28;20016;-76
2024/03/14 00:08:02;;;;;;;10.85;6.35;;;;;;;10.01;100.00;98904.28;5103030;28;20099;-76
2024/03/14 00:10:29;;;;;;;16.55;6.85;;;;;;;10.01;100.00;98907.81;5113999;27;20067;-77
2024/03/14 00:12:54;;;;;;;12.45;7.28;;;;;;;9.92;100.00;98906.28;5102890;27;20027;-75
2024/03/14 00:15:20;;;;;;;18.98;8.60;;;;;;;9.91;100.00;98903.81;5110306;27;20027;-76
2024/03/14 00:17:45;;;;;;;15.30;7.25;;;;;;;9.89;100.00;98914.78;5108525;27;20023;-75
2024/03/14 00:20:12;;;;;;;11.60;7.38;;;;;;;9.86;100.00;98917.91;5111618;27;20094;-75
2024/03/14 00:22:40;;;;;;;13.57;6.60;;;;;;;9.89;100.00;98914.78;5107064;28;20222;-76
2024/03/14 00:25:09;;;;;;;11.77;6.97;;;;;;;9.79;100.00;98907.03;5119041;28;20130;-77
2024/03/14 00:27:43;;;;;;;12.15;7.22;;;;;;;9.87;100.00;98906.03;5106759;28;20019;-76
2024/03/14 00:30:11;;;;;;;11.13;7.32;;;;;;;9.88;100.00;98911.25;5104423;28;20091;-75
2024/03/14 00:32:36;;;;;;;16.15;7.13;;;;;;;9.90;100.00;98921.84;5123059;27;20038;-75
2024/03/14 00:35:05;;;;;;;12.02;7.13;;;;;;;9.87;100.00;98920.38;5107992;28;20031;-75
2024/03/14 00:37:30;;;;;;;12.07;6.80;;;;;;;9.85;100.00;98913.50;5102502;28;20072;-76
2024/03/14 00:39:55;;;;;;;15.57;8.57;;;;;;;9.84;100.00;98907.28;5114993;27;20310;-76
2024/03/14 00:42:21;;;;;;;22.08;11.30;;;;;;;9.78;100.00;98899.97;5128632;27;20020;-76
2024/03/14 00:44:47;;;;;;;18.65;10.77;;;;;;;9.85;100.00;98914.38;5105752;28;20024;-77
2024/03/14 00:47:12;;;;;;;22.58;12.27;;;;;;;9.78;100.00;98891.03;5107703;27;20107;-77
2024/03/14 00:49:38;;;;;;;21.27;11.63;;;;;;;9.83;100.00;98907.47;5113327;28;20210;-77
2024/03/14 00:52:04;;;;;;;20.70;11.40;;;;;;;9.78;100.00;98897.25;5105440;28;20072;-76
2024/03/14 00:54:31;;;;;;;13.98;9.32;;;;;;;9.87;100.00;98920.38;5096801;28;20023;-77
2024/03/14 00:56:57;;;;;;;15.63;9.23;;;;;;;9.74;100.00;98898.66;5108692;27;20026;-78
2024/03/14 00:59:22;;;;;;;15.23;8.60;;;;;;;9.61;100.00;98887.75;5127527;27;20043;-77
2024/03/14 01:01:47;;;;;;;14.25;8.02;;;;;;;9.53;100.00;98877.91;5110049;27;20474;-78
2024/03/14 01:04:13;;;;;;;11.75;7.97;;;;;;;9.53;100.00;98887.91;5109463;27;20042;-77
2024/03/14 01:06:39;;;;;;;22.42;7.97;;;;;;;9.40;100.00;98873.22;5119998;27;20084;-77
2024/03/14 01:09:06;;;;;;;10.05;6.80;;;;;;;9.66;100.00;98898.81;5113353;28;20024;-77
2024/03/14 01:11:31;;;;;;;11.82;7.72;;;;;;;9.55;100.00;98888.53;5106305;28;20191;-78
2024/03/14 01:13:57;;;;;;;13.57;8.05;;;;;;;9.58;100.00;98897.06;5104590;28;20110;-77
2024/03/14 01:16:22;;;;;;;14.05;8.02;;;;;;;9.49;100.00;98878.53;5113362;28;20315;-78
2024/03/14 01:18:50;;;;;;;14.43;7.90;;;;;;;9.60;100.00;98892.31;5106505;28;20063;-78
2024/03/14 01:21:16;;;;;;;14.18;8.15;;;;;;;9.63;100.00;98896.50;5107837;27;20311;-77
2024/03/14 01:23:41;;;;;;;14.10;8.85;;;;;;;9.60;100.00;98896.91;5105879;28;20107;-77
2024/03/14 01:26:08;;;;;;;15.07;8.40;;;;;;;9.54;100.00;98886.88;5104305;28;20323;-77
2024/03/14 01:28:33;;;;;;;18.98;8.23;;;;;;;9.66;100.00;98902.34;5116885;28;20023;-77
2024/03/14 01:30:59;;;;;;;11.80;7.63;;;;;;;9.56;100.00;98890.19;5098685;28;20032;-77
2024/03/14 01:33:24;;;;;;;15.50;7.75;;;;;;;9.54;100.00;98894.97;5103986;28;20460;-77
2024/03/14 01:35:54;;;;;;;13.15;7.05;;;;;;;9.43;100.00;98883.66;5111103;27;20313;-77
2024/03/14 01:38:20;;;;;;;13.75;7.40;;;;;;;9.40;100.00;98880.50;5107378;28;20034;-77
2024/03/14 01:40:45;;;;;;;12.57;7.82;;;;;;;9.37;100.00;98876.31;5111301;28;20015;-77
2024/03/14 01:43:11;;;;;;;19.52;8.30;;;;;;;9.38;100.00;98871.78;5104650;28;20024;-77
2024/03/14 01:45:36;;;;;;;12.55;6.88;;;;;;;9.27;100.00;98856.91;5106321;28;20192;-77
2024/03/14 01:48:02;;;;;;;13.48;7.95;;;;;;;9.31;100.00;98866.31;5109088;28;20019;-76
2024/03/14 01:50:27;;;;;;;14.55;8.35;;;;;;;9.13;100.00;98858.66;5107821;28;20028;-76
2024/03/14 01:52:53;;;;;;;17.05;8.07;;;;;;;9.11;100.00;98865.28;5110161;28;20341;-77
2024/03/14 01:55:19;;;;;;;16.25;8.57;;;;;;;8.94;100.00;98846.66;5104124;28;20096;-76
2024/03/14 01:57:44;;;;;;;14.82;8.93;;;;;;;9.10;100.00;98879.81;5093470;28;20020;-76
2024/03/14 02:00:13;;;;;;;15.73;8.88;;;;;;;8.81;100.00;98837.59;5100159;28;20023;-77
2024/03/14 02:02:40;;;;;;;17.83;9.35;;;;;;;8.85;100.00;98846.94;5102998;28;20102;-77
2024/03/14 02:05:32;;;;;;;16.33;9.27;;;;;;;8.94;100.00;98864.72;5125092;28;20064;-77
2024/03/14 02:07:58;;;;;;;18.73;9.15;;;;;;;8.85;100.00;98861.28;5091402;28;20235;-77
2024/03/14 02:10:25;;;;;;;17.65;8.88;;;;;;;8.82;100.00;98869.75;5104029;28;20359;-76
2024/03/14 02:12:53;;;;;;;14.85;9.07;;;;;;;8.68;100.00;98839.09;5127648;28;20019;-77
2024/03/14 02:15:19;;;;;;;17.00;9.75;;;;;;;8.84;100.00;98867.69;5103129;28;20024;-77
2024/03/14 02:17:44;;;;;;;14.77;8.25;;;;;;;8.86;100.00;98868.34;5117306;27;20019;-76
2024/03/14 02:20:14;;;;;;;14.10;8.90;;;;;;;8.80;100.00;98873.66;5108868;28;20028;-77
2024/03/14 02:22:44;;;;;;;15.93;9.65;;;;;;;8.71;100.00;98852.19;5099706;28;20076;-77
2024/03/14 02:25:10;;;;;;;16.23;9.05;;;;;;;8.58;100.00;98838.56;5108264;28;20061;-77
2024/03/14 02:27:35;;;;;;;15.25;8.93;;;;;;;8.56;100.00;98846.00;5101152;28;20099;-77
2024/03/14 02:30:02;;;;;;;14.93;8.32;;;;;;;8.31;100.00;98822.03;5091885;28;20023;-76
2024/03/14 02:32:28;;;;;;;14.90;9.02;;;;;;;8.35;100.00;98830.59;5105159;28;20015;-77
2024/03/14 02:34:53;;;;;;;16.38;9.70;;;;;;;8.33;100.00;98835.31;5102415;28;20042;-77
2024/03/14 02:37:18;;;;;;;17.63;9.73;;;;;;;8.48;100.00;98865.81;5099461;28;20058;-77
2024/03/14 02:39:44;;;;;;;12.45;8.52;;;;;;;8.27;100.00;98853.09;5105735;28;20039;-77
2024/03/14 02:42:11;;;;;;;16.83;9.43;;;;;;;8.26;100.00;98858.69;5099224;28;20030;-77
2024/03/14 02:44:36;;;;;;;18.85;8.93;;;;;;;8.24;100.00;98841.84;5109652;28;20020;-77
2024/03/14 02:47:02;;;;;;;14.10;8.70;;;;;;;8.28;100.00;98851.25;5112682;27;20019;-77
2024/03/14 02:49:27;;;;;;;13.10;9.10;;;;;;;8.25;100.00;98849.75;5113015;27;20090;-78
2024/03/14 02:51:52;;;;;;;17.92;9.60;;;;;;;8.10;100.00;98830.91;5112497;28;20039;-77
2024/03/14 02:54:19;;;;;;;18.10;10.00;;;;;;;8.36;100.00;98864.63;5114630;27;20064;-77
2024/03/14 02:56:52;;;;;;;18.63;10.82;;;;;;;8.24;100.00;98844.53;5115321;27;20059;-77
2024/03/14 02:59:18;;;;;;;18.02;11.50;;;;;;;8.21;100.00;98845.75;5111522;27;20028;-77
2024/03/14 03:01:43;;;;;;;18.33;10.88;;;;;;;8.18;100.00;98848.81;5131958;27;20315;-77
2024/03/14 03:04:11;;;;;;;18.85;11.48;;;;;;;8.27;100.00;98869.25;5110968;27;20090;-78
2024/03/14 03:06:54;;;;;;;21.95;12.77;;;;;;;8.18;100.00;98848.00;5113845;28;20106;-80
2024/03/14 03:09:21;;;;;;;20.65;11.93;;;;;;;8.18;100.00;98848.81;5121783;28;20318;-78
2024/03/14 03:11:47;;;;;;;21.33;11.45;;;;;;;8.28;100.00;98853.94;5115770;27;20248;-78
2024/03/14 03:14:12;;;;;;;27.85;11.88;;;;;;;8.16;100.00;98845.47;5111580;27;20046;-78
2024/03/14 03:16:38;;;;;;;22.67;11.60;;;;;;;8.25;100.00;98860.53;5117659;27;20020;-78
2024/03/14 03:19:04;;;;;;;22.17;12.25;;;;;;;8.22;100.00;98860.06;5106850;28;20042;-79
2024/03/14 03:21:30;;;;;;;23.63;12.85;;;;;;;8.08;100.00;98846.41;5110446;28;20431;-78
2024/03/14 03:23:55;;;;;;;21.80;11.68;;;;;;;8.10;100.00;98854.31;5117128;28;20026;-78
2024/03/14 03:26:21;;;;;;;24.10;10.82;;;;;;;7.98;100.00;98843.16;5135871;27;20019;-78
2024/03/14 03:28:46;;;;;;;24.80;11.73;;;;;;;7.80;100.00;98821.97;5121092;27;20102;-78
2024/03/14 03:31:12;;;;;;;19.73;11.10;;;;;;;7.87;100.00;98835.53;5134970;27;20026;-78
2024/03/14 03:33:38;;;;;;;28.33;10.95;;;;;;;7.90;100.00;98852.16;5133425;27;20100;-78
2024/03/14 03:36:06;;;;;;;20.85;10.23;;;;;;;7.69;100.00;98827.81;5132882;27;20034;-78
2024/03/14 03:38:36;;;;;;;21.63;10.73;;;;;;;7.90;100.00;98859.41;5108094;27;20066;-78
2024/03/14 03:41:01;;;;;;;23.90;11.55;;;;;;;7.76;100.00;98836.00;5110710;28;20019;-78
2024/03/14 03:43:26;;;;;;;23.98;10.93;;;;;;;7.76;100.00;98838.69;5105990;28;20016;-78
2024/03/14 03:45:52;;;;;;;26.50;11.07;;;;;;;7.90;100.00;98845.94;5113863;28;20098;-78
2024/03/14 03:48:18;;;;;;;29.90;11.55;;;;;;;7.79;100.00;98824.88;5107883;28;20297;-81
2024/03/14 03:50:43;;;;;;;24.27;11.45;;;;;;;7.69;100.00;98811.66;5105159;28;20055;-80
2024/03/14 03:53:08;;;;;;;20.52;11.27;;;;;;;7.79;100.00;98836.47;5101682;28;20046;-78
2024/03/14 03:55:33;;;;;;;21.77;10.60;;;;;;;7.72;100.00;98832.00;5098602;27;20031;-78
2024/03/14 03:57:59;;;;;;;24.95;11.20;;;;;;;7.75;100.00;98843.22;5116019;27;20035;-78
2024/03/14 04:00:33;;;;;;;23.33;11.68;;;;;;;7.77;100.00;98851.97;5108273;27;20023;-78
2024/03/14 04:03:08;;;;;;;24.98;11.70;;;;;;;7.72;100.00;98842.78;5112142;27;20296;-80
2024/03/14 04:05:34;;;;;;;25.30;11.48;;;;;;;7.64;100.00;98835.59;5110838;27;20129;-80
2024/03/14 04:08:00;;;;;;;22.58;10.60;;;;;;;7.69;100.00;98843.97;5102624;27;20030;-78
2024/03/14 04:10:25;;;;;;;22.30;10.85;;;;;;;7.50;100.00;98815.72;5120132;27;20027;-78
2024/03/14 04:12:51;;;;;;;23.33;10.70;;;;;;;7.56;100.00;98833.84;5106812;28;20030;-78
2024/03/14 04:15:17;;;;;;;25.13;11.43;;;;;;;7.45;100.00;98818.97;5105372;28;20027;-78
2024/03/14 04:17:43;;;;;;;24.02;12.60;;;;;;;7.51;100.00;98835.41;5106330;28;20022;-78
2024/03/14 04:20:11;;;;;;;30.10;13.25;;;;;;;7.47;100.00;98818.78;5111618;27;20075;-77
2024/03/14 04:22:40;;;;;;;23.60;12.98;;;;;;;7.51;100.00;98825.47;5104495;28;20027;-77
2024/03/14 04:25:09;;;;;;;24.30;12.05;;;;;;;7.52;100.00;98827.16;5105345;27;20313;-77
2024/03/14 04:27:34;;;;;;;;;;;;;;;7.61;100.00;98846.75;5110217;27;20030;-77
2024/03/14 04:29:59;;;;;;;23.02;11.57;;;;;;;7.57;100.00;98837.34;5106006;27;19908;-77
2024/03/14 04:32:25;;;;;;;24.83;11.75;;;;;;;7.55;100.00;98834.03;5125839;27;20024;-77
2024/03/14 04:34:50;;;;;;;23.50;13.02;;;;;;;7.46;100.00;98819.78;5116603;28;20039;-79
2024/03/14 04:37:15;;;;;;;24.02;11.93;;;;;;;7.55;100.00;98834.88;5131390;27;20015;-79
2024/03/14 04:39:41;;;;;;;48.95;12.82;;;;;;;7.41;100.00;98811.44;5110499;28;20065;-78
2024/03/14 04:42:07;;;;;;;30.67;12.27;;;;;;;7.48;100.00;98828.53;5120357;27;20022;-78
2024/03/14 04:44:35;;;;;;;26.60;12.73;;;;;;;7.40;100.00;98817.84;5107083;28;20027;-79
2024/03/14 04:47:03;;;;;;;24.73;13.40;;;;;;;7.41;100.00;98824.88;5108087;27;20027;-78
2024/03/14 04:49:28;;;;;;;24.08;12.07;;;;;;;7.46;100.00;98841.31;5137671;27;20019;-78
2024/03/14 04:51:54;;;;;;;24.48;12.43;;;;;;;7.43;100.00;98839.00;5109008;27;20023;-79
2024/03/14 04:54:20;;;;;;;31.02;12.35;;;;;;;7.41;100.00;98836.50;5103818;28;20019;-80
2024/03/14 04:56:46;;;;;;;22.42;11.80;;;;;;;7.35;100.00;98831.84;5101687;28;20382;-78
2024/03/14 04:59:12;;;;;;;24.63;12.07;;;;;;;7.41;100.00;98843.72;5112101;28;20124;-79
2024/03/14 05:01:38;;;;;;;24.73;11.98;;;;;;;7.40;100.00;98834.81;5124929;27;20026;-82
2024/03/14 05:04:03;;;;;;;21.27;11.80;;;;;;;7.30;100.00;98817.25;5111310;28;20067;-79
2024/03/14 05:06:29;;;;;;;28.73;12.82;;;;;;;7.29;100.00;98804.84;5107849;28;20020;-83
2024/03/14 05:08:54;;;;;;;24.38;12.10;;;;;;;7.41;100.00;98825.75;5113253;27;20015;-86
2024/03/14 05:11:21;;;;;;;29.42;12.88;;;;;;;7.53;100.00;98844.16;5108329;28;20023;-84
2024/03/14 05:13:49;;;;;;;25.05;13.02;;;;;;;7.53;100.00;98836.06;5097831;28;20361;-87
2024/03/14 05:16:16;;;;;;;26.88;13.25;;;;;;;7.44;100.00;98824.53;5117356;27;20090;-87
2024/03/14 05:18:42;;;;;;;26.17;12.55;;;;;;;7.61;100.00;98839.50;5117472;28;21713;-81
2024/03/14 05:21:10;;;;;;;30.60;13.07;;;;;;;7.49;100.00;98824.81;5090779;22;20051;-83
2024/03/14 05:23:36;;;;;;;25.55;13.00;;;;;;;7.55;100.00;98829.47;5068492;28;20016;-84
2024/03/14 05:26:02;;;;;;;28.33;13.75;;;;;;;7.43;100.00;98804.00;5051468;28;20024;-80
2024/03/14 05:28:27;;;;;;;27.02;12.93;;;;;;;7.60;100.00;98834.31;5055460;28;20013;-78
2024/03/14 05:30:53;;;;;;;29.48;13.45;;;;;;;7.56;100.00;98823.06;5074245;28;20020;-77
2024/03/14 05:33:19;;;;;;;25.83;12.82;;;;;;;7.60;100.00;98820.84;5079592;28;20256;-80
2024/03/14 05:35:45;;;;;;;28.05;11.27;;;;;;;7.68;100.00;98831.53;5093301;28;20021;-79
2024/03/14 05:38:12;;;;;;;27.83;12.55;;;;;;;7.75;100.00;98823.53;5072596;28;20024;-84
2024/03/14 05:40:37;;;;;;;30.13;12.70;;;;;;;7.56;100.00;98801.53;5097169;28;20032;-79
2024/03/14 05:43:03;;;;;;;23.02;12.45;;;;;;;7.66;100.00;98825.50;5078391;28;20012;-77
2024/03/14 05:45:33;;;;;;;25.20;12.02;;;;;;;7.65;100.00;98811.22;5083287;28;20056;-77
2024/03/14 05:48:11;;;;;;;21.70;11.55;;;;;;;7.72;100.00;98832.00;5083009;28;20029;-78
2024/03/14 05:50:36;;;;;;;25.45;12.45;;;;;;;7.69;100.00;98834.03;5086293;28;20108;-80
2024/03/14 05:53:02;;;;;;;19.50;11.38;;;;;;;7.64;100.00;98820.28;5077267;28;20032;-78
2024/03/14 05:55:27;;;;;;;21.65;11.35;;;;;;;7.58;100.00;98804.88;5089254;28;20021;-77
2024/03/14 05:57:52;;;;;;;20.27;11.85;;;;;;;7.69;100.00;98817.03;5071673;28;20017;-77
2024/03/14 06:00:21;;;;;;;21.65;11.55;;;;;;;7.77;100.00;98834.97;5077105;28;20469;-75
2024/03/14 06:02:46;;;;;;;19.45;10.50;;;;;;;7.80;100.00;98830.03;5082658;28;20016;-75
2024/03/14 06:05:12;;;;;;;15.93;9.30;;;;;;;7.80;100.00;98823.81;5069654;28;20035;-75
2024/03/14 06:07:38;;;;;;;14.27;8.95;;;;;;;7.83;100.00;98835.09;5084276;28;20047;-75
2024/03/14 06:10:03;;;;;;;17.73;9.40;;;;;;;7.89;100.00;98836.19;5068443;28;20038;-77
2024/03/14 06:12:29;;;;;;;15.63;8.35;;;;;;;7.89;100.00;98834.34;5087005;28;20067;-75
2024/03/14 06:14:56;;;;;;;14.70;8.40;;;;;;;7.96;100.00;98829.03;5081748;28;20258;-76
2024/03/14 06:17:22;;;;;;;16.00;8.02;;;;;;;8.01;100.00;98836.56;5087966;28;20028;-77
2024/03/14 06:19:48;;;;;;;15.23;7.80;;;;;;;7.98;100.00;98832.38;5085585;28;20041;-76
2024/03/14 06:22:15;;;;;;;14.18;8.15;;;;;;;8.01;100.00;98832.00;5059273;28;20016;-77
2024/03/14 06:24:43;;;;;;;15.88;8.65;;;;;;;8.13;100.00;98844.00;5065004;28;20020;-73
2024/03/14 06:27:12;;;;;;;21.85;12.20;;;;;;;8.16;100.00;98834.69;5078682;28;20040;-73
2024/03/14 06:29:38;;;;;;;18.88;11.82;;;;;;;8.23;100.00;98840.19;5073780;28;20025;-73
2024/03/14 06:32:04;;;;;;;14.55;9.93;;;;;;;8.30;100.00;98846.47;5062421;28;20031;-74
2024/03/14 06:34:30;;;;;;;16.27;9.50;;;;;;;8.30;100.00;98833.00;5083588;28;20099;-73
2024/03/14 06:36:55;;;;;;;12.00;7.30;;;;;;;8.42;100.00;98842.31;5081717;28;20044;-72
2024/03/14 06:39:21;;;;;;;12.55;7.32;;;;;;;8.47;100.00;98825.59;5071853;28;20104;-73
2024/03/14 06:41:46;;;;;;;12.93;7.45;;;;;;;8.66;100.00;98830.34;5072198;28;20243;-73
2024/03/14 06:44:13;;;;;;;17.20;7.72;;;;;;;8.64;100.00;98831.56;5070813;28;20028;-73
2024/03/14 06:46:39;;;;;;;10.60;6.57;;;;;;;8.56;100.00;98819.88;5081577;28;20216;-74
2024/03/14 06:49:12;;;;;;;15.27;7.40;;;;;;;8.43;100.00;98808.94;5078174;28;20024;-73
2024/03/14 06:51:38;;;;;;;13.02;6.55;;;;;;;8.59;100.00;98821.34;5079035;28;20024;-74
2024/03/14 06:54:04;;;;;;;9.65;6.07;;;;;;;8.73;100.00;98823.19;5079655;28;20457;-80
2024/03/14 06:56:30;;;;;;;10.68;6.32;;;;;;;8.95;100.00;98829.41;5064974;28;20327;-80
2024/03/14 06:58:55;;;;;;;8.98;5.60;;;;;;;8.77;100.00;98810.13;5067468;28;20016;-80
2024/03/14 07:01:21;;;;;;;10.18;6.45;;;;;;;8.73;100.00;98798.06;5078139;28;20016;-83
2024/03/14 07:03:46;;;;;;;11.20;6.13;;;;;;;8.53;100.00;98814.03;5061124;28;20096;-79
2024/03/14 07:06:14;;;;;;;13.25;6.00;;;;;;;8.64;100.00;98808.13;5065243;28;20016;-81
2024/03/14 07:08:42;;;;;;;10.23;5.70;;;;;;;8.61;100.00;98789.63;5058547;28;20016;-81
2024/03/14 07:11:11;;;;;;;8.43;5.57;;;;;;;8.75;100.00;98793.31;5066338;28;20054;-80
2024/03/14 07:13:37;;;;;;;9.02;6.07;;;;;;;8.65;100.00;98796.34;5069883;28;20032;-76
2024/03/14 07:16:09;;;;;;;11.07;5.65;;;;;;;8.82;100.00;98796.09;5074865;28;20029;-77
2024/03/14 07:18:34;;;;;;;9.93;5.63;;;;;;;8.85;100.00;98815.41;5073768;28;20303;-79
2024/03/14 07:21:00;;;;;;;7.75;5.35;;;;;;;8.94;100.00;98806.19;5058239;28;20104;-80
2024/03/14 07:23:31;;;;;;;12.18;6.35;;;;;;;8.97;100.00;98803.09;5051235;28;20021;-76
2024/03/14 07:25:58;;;;;;;9.48;5.75;;;;;;;9.18;100.00;98812.22;5058718;28;20027;-76
2024/03/14 07:28:23;;;;;;;7.85;5.72;;;;;;;9.36;100.00;98793.66;5070613;28;20028;-77
2024/03/14 07:30:48;;;;;;;9.43;4.97;;;;;;;9.49;100.00;98782.13;5062196;28;20216;-76
2024/03/14 07:33:14;;;;;;;7.95;5.05;;;;;;;9.86;100.00;98794.41;5077469;28;20052;-77
2024/03/14 07:35:44;;;;;;;9.93;5.78;;;;;;;9.83;100.00;98761.56;5068792;28;20043;-78
2024/03/14 07:38:10;;;;;;;7.60;4.55;;;;;;;10.42;100.00;98784.50;5067130;28;20032;-75
2024/03/14 07:40:36;;;;;;;9.20;4.95;;;;;;;10.62;100.00;98773.78;5070725;28;20550;-77
2024/03/14 07:43:01;;;;;;;9.75;5.35;;;;;;;10.90;100.00;98781.75;5067338;28;20032;-75
2024/03/14 07:45:27;;;;;;;9.93;5.45;;;;;;;11.16;100.00;98783.63;5072878;28;20104;-74
2024/03/14 07:47:52;;;;;;;7.68;4.68;;;;;;;11.34;100.00;98764.03;5079375;28;20052;-75
2024/03/14 07:50:17;;;;;;;11.27;4.28;;;;;;;11.58;100.00;98776.94;5076175;28;20051;-77
2024/03/14 07:52:44;;;;;;;8.50;4.90;;;;;;;11.72;100.00;98761.50;5063035;28;20024;-78
2024/03/14 07:55:10;;;;;;;6.70;4.18;;;;;;;12.25;100.00;98771.38;5061505;28;20316;-76
2024/03/14 07:57:36;;;;;;;7.43;4.45;;;;;;;12.55;100.00;98765.38;5079185;28;20123;-79
2024/03/14 08:00:09;;;;;;;6.65;4.20;;;;;;;13.00;100.00;98751.75;5078993;28;20024;-81
2024/03/14 08:02:38;;;;;;;8.23;4.53;;;;;;;13.46;100.00;98772.28;5083659;28;20201;-81
2024/03/14 08:05:06;;;;;;;8.05;4.50;;;;;;;13.64;100.00;98742.41;5055837;28;20029;-81
2024/03/14 08:07:33;;;;;;;7.38;4.30;;;;;;;14.45;100.00;98745.88;5077226;28;20024;-75
2024/03/14 08:09:58;;;;;;;6.45;4.00;;;;;;;15.27;100.00;98748.88;5064482;28;20088;-81
2024/03/14 08:12:24;;;;;;;7.20;4.28;;;;;;;15.85;100.00;98774.53;5070823;28;20036;-79
2024/03/14 08:14:58;;;;;;;6.70;3.80;;;;;;;16.78;100.00;98742.59;5066637;28;20036;-79
2024/03/14 08:17:26;;;;;;;6.15;3.90;;;;;;;17.59;100.00;98760.63;5066509;28;20017;-80
2024/03/14 08:19:56;;;;;;;4.63;3.28;;;;;;;18.53;100.00;98765.22;5079502;28;20091;-81
2024/03/14 08:22:22;;;;;;;8.55;4.13;;;;;;;16.91;100.00;98765.25;5081156;28;20016;-78
2024/03/14 08:24:49;;;;;;;8.45;4.40;;;;;;;17.44;100.00;98772.97;5084823;28;20032;-77
2024/03/14 08:27:15;;;;;;;6.82;3.78;;;;;;;17.85;100.00;98768.19;5079363;28;20025;-77
2024/03/14 08:29:41;;;;;;;5.95;3.97;;;;;;;18.88;100.00;98767.56;5076076;28;20055;-78
2024/03/14 08:32:09;;;;;;;10.18;4.20;;;;;;;18.88;100.00;98758.50;5075164;28;20020;-77
2024/03/14 08:34:34;;;;;;;5.25;4.13;;;;;;;19.55;100.00;98771.72;5064556;28;20332;-78
2024/03/14 08:37:00;;;;;;;6.90;3.80;;;;;;;19.72;97.98;98766.13;5078066;28;20086;-77
2024/03/14 08:39:28;;;;;;;4.97;3.83;;;;;;;19.43;97.79;98760.09;5079408;28;20054;-79
2024/03/14 08:41:54;;;;;;;4.70;3.30;;;;;;;20.19;90.68;98748.81;5065178;28;20083;-78
2024/03/14 08:44:28;;;;;;;4.50;3.40;;;;;;;20.96;82.80;98746.34;5070171;28;20020;-77
2024/03/14 08:46:53;;;;;;;7.15;4.43;;;;;;;21.33;77.37;98745.28;5076647;28;20212;-78
2024/03/14 08:49:19;;;;;;;6.00;4.45;;;;;;;21.10;77.46;98766.72;5060619;28;20025;-75
2024/03/14 08:51:45;;;;;;;5.32;3.50;;;;;;;20.55;79.94;98755.31;5079073;28;20040;-80
2024/03/14 08:54:29;;;;;;;7.80;4.88;;;;;;;20.89;83.32;98729.28;5083649;28;20024;-79
2024/03/14 08:56:58;;;;;;;6.13;3.80;;;;;;;22.21;73.12;98755.09;5052976;28;20025;-78
2024/03/14 08:59:25;;;;;;;7.90;4.57;;;;;;;21.30;77.06;98745.81;5076190;28;20021;-75
2024/03/14 09:01:50;;;;;;;6.28;3.70;;;;;;;21.61;73.00;98742.00;5078999;28;20066;-79
2024/03/14 09:04:15;;;;;;;8.60;3.75;;;;;;;23.11;69.11;98740.31;5077424;28;20044;-79
2024/03/14 09:06:42;;;;;;;4.88;3.72;;;;;;;22.65;67.88;98743.31;5061441;28;20375;-79
2024/03/14 09:09:07;;;;;;;5.22;3.80;;;;;;;22.10;71.66;98741.31;5080324;28;20032;-80
2024/03/14 09:11:33;;;;;;;5.97;4.07;;;;;;;23.33;67.80;98742.63;5054661;28;20028;-77
2024/03/14 09:13:59;;;;;;;5.15;4.00;;;;;;;22.88;66.39;98745.41;5065623;28;20298;-80
2024/03/14 09:16:26;;;;;;;5.20;3.90;;;;;;;23.19;65.35;98725.91;5085668;28;20039;-82
2024/03/14 09:18:52;;;;;;;5.88;3.90;;;;;;;22.31;66.43;98749.56;5079467;28;20023;-81
2024/03/14 09:21:19;;;;;;;5.25;3.70;;;;;;;22.48;67.53;98733.50;5080191;28;20016;-77
2024/03/14 09:23:45;;;;;;;7.35;4.00;;;;;;;22.13;66.34;98731.66;5079240;28;20047;-76
2024/03/14 09:26:10;;;;;;;5.13;4.03;;;;;;;22.93;64.90;98701.22;5080979;28;20020;-78
2024/03/14 09:28:38;;;;;;;5.22;4.03;;;;;;;22.02;68.30;98730.06;5054573;28;20036;-78
2024/03/14 09:31:05;;;;;;;6.00;4.00;;;;;;;22.16;69.43;98725.59;5074914;28;20025;-81
2024/03/14 09:33:31;;;;;;;4.57;3.42;;;;;;;22.26;67.70;98744.88;5081681;28;20214;-76
2024/03/14 09:35:57;;;;;;;4.88;3.55;;;;;;;21.75;69.82;98736.72;5079024;28;20095;-78
2024/03/14 09:38:22;;;;;;;4.00;3.30;;;;;;;20.26;74.98;98718.34;5083026;28;20032;-78
2024/03/14 09:40:48;;;;;;;6.22;3.58;;;;;;;19.02;78.21;98727.69;5080935;28;20099;-78
2024/03/14 09:43:19;;;;;;;5.68;3.50;;;;;;;18.65;88.40;98697.38;5071029;28;20024;-80
2024/03/14 09:45:45;;;;;;;5.07;3.45;;;;;;;19.66;87.07;98725.97;5065022;28;20031;-80
2024/03/14 09:48:10;;;;;;;4.50;3.20;;;;;;;19.93;82.63;98712.97;5068280;28;20025;-81
2024/03/14 09:50:37;;;;;;;4.18;3.20;;;;;;;20.48;79.89;98712.66;5060637;28;20033;-78
2024/03/14 09:53:03;;;;;;;5.50;3.13;;;;;;;21.01;76.54;98733.44;5080929;28;20032;-75
2024/03/14 09:55:30;;;;;;;4.28;2.88;;;;;;;22.35;70.68;98728.59;5072895;28;20077;-75
2024/03/14 09:57:59;;;;;;;4.28;2.90;;;;;;;21.48;72.53;98719.69;5080695;28;20033;-79
2024/03/14 10:00:26;;;;;;;5.82;2.60;;;;;;;21.81;71.95;98707.25;5065951;28;20032;-79
2024/03/14 10:02:55;;;;;;;3.58;2.53;;;;;;;23.16;66.97;98704.38;5066923;28;20467;-82
2024/03/14 10:05:21;;;;;;;3.80;2.60;;;;;;;22.38;64.83;98702.41;5075836;28;20194;-82
2024/03/14 10:07:47;;;;;;;4.35;2.95;;;;;;;22.99;66.72;98713.06;5064126;28;20059;-76
2024/03/14 10:10:15;;;;;;;4.88;2.30;;;;;;;23.34;63.32;98703.69;5080030;28;20028;-80
2024/03/14 10:12:52;;;;;;;3.20;2.40;;;;;;;23.65;63.79;98714.44;5071113;28;20045;-81
2024/03/14 10:15:20;;;;;;;4.25;2.50;;;;;;;23.31;63.89;98712.53;5057783;28;20090;-82
2024/03/14 10:17:47;;;;;;;5.13;2.13;;;;;;;22.27;65.79;98716.22;5066691;28;20083;-75
2024/03/14 10:20:13;;;;;;;5.55;2.60;;;;;;;21.50;67.56;98712.81;5080801;28;20043;-75
2024/03/14 10:22:39;;;;;;;3.33;2.40;;;;;;;22.33;66.73;98718.97;5078558;28;20083;-76
2024/03/14 10:25:05;;;;;;;3.17;2.08;;;;;;;22.50;64.21;98708.38;5079431;28;20083;-75
2024/03/14 10:27:31;;;;;;;2.65;2.05;;;;;;;22.87;64.09;98702.38;5080967;28;20040;-74
2024/03/14 10:29:57;;;;;;;2.72;1.63;;;;;;;23.14;62.62;98698.34;5080293;28;20024;-74
2024/03/14 10:32:23;;;;;;;2.75;2.00;;;;;;;21.51;65.75;98697.09;5082644;28;20215;-74
2024/03/14 10:34:51;;;;;;;4.03;2.03;;;;;;;20.86;67.57;98711.41;5078685;28;20028;-73
2024/03/14 10:37:18;;;;;;;4.43;2.17;;;;;;;21.13;68.13;98699.31;5084372;28;20387;-75
2024/03/14 10:39:54;;;;;;;2.22;1.55;;;;;;;21.80;67.16;98700.09;5066887;28;20031;-75
2024/03/14 10:42:22;;;;;;;2.97;1.50;;;;;;;20.95;68.05;98695.19;5078060;28;20013;-75
2024/03/14 10:44:47;;;;;;;3.05;2.05;;;;;;;21.56;68.63;98700.72;5078989;28;20017;-75
2024/03/14 10:47:14;;;;;;;2.70;1.83;;;;;;;20.90;69.17;98689.66;5073931;28;20220;-75
2024/03/14 10:49:42;;;;;;;2.17;1.40;;;;;;;21.93;65.63;98683.00;5075954;28;20020;-74
2024/03/14 10:52:12;;;;;;;3.78;1.60;;;;;;;23.13;62.38;98677.38;5058391;28;20028;-77
2024/03/14 10:54:39;;;;;;;3.55;1.60;;;;;;;23.47;61.77;98682.84;5075295;28;20052;-76
2024/03/14 10:57:06;;;;;;;2.40;1.70;;;;;;;24.62;58.87;98688.44;5087451;28;20314;-76
2024/03/14 10:59:36;;;;;;;2.45;1.70;;;;;;;25.90;55.33;98686.34;5076972;28;21351;-74
2024/03/14 11:02:03;;;;;;;2.15;1.65;;;;;;;26.57;53.76;98679.47;5077410;28;20028;-75
2024/03/14 11:04:29;;;;;;;3.65;1.77;;;;;;;28.62;49.37;98664.59;5078055;28;20032;-74
2024/03/14 11:07:03;;;;;;;1.77;1.35;;;;;;;29.05;46.94;98668.53;5059453;28;20021;-75
2024/03/14 11:09:35;;;;;;;2.35;1.73;;;;;;;28.72;47.22;98663.47;5073209;28;20024;-75
2024/03/14 11:12:03;;;;;;;1.38;1.17;;;;;;;27.74;49.21;98668.19;5074480;28;20227;-75
2024/03/14 11:14:37;;;;;;;3.63;1.40;;;;;;;27.62;49.24;98651.31;5075020;28;20025;-75
2024/03/14 11:17:04;;;;;;;1.75;1.17;;;;;;;27.04;50.67;98657.81;5076546;28;20554;-75
2024/03/14 11:19:30;;;;;;;1.88;1.35;;;;;;;26.94;50.39;98652.50;5077399;28;20031;-75
2024/03/14 11:21:57;;;;;;;2.17;1.13;;;;;;;25.87;51.64;98653.72;5078742;28;20205;-75